createdAt,value
2022-11-09T00:00:50.578Z,11.00
2022-11-09T00:03:18.931Z,10.90
2022-11-09T00:05:56.755Z,10.90
2022-11-09T00:08:26.677Z,10.90
2022-11-09T00:10:54.657Z,10.90
2022-11-09T00:13:23.164Z,10.90
2022-11-09T00:15:51.579Z,10.90
2022-11-09T00:18:19.573Z,10.90
2022-11-09T00:20:48.410Z,10.90
2022-11-09T00:23:17.369Z,10.80
2022-11-09T00:25:47.477Z,10.80
2022-11-09T00:28:15.940Z,10.80
2022-11-09T00:30:44.812Z,10.80
2022-11-09T00:33:12.779Z,10.80
2022-11-09T00:35:40.702Z,10.80
2022-11-09T00:38:08.759Z,10.70
2022-11-09T00:40:36.757Z,10.70
2022-11-09T00:43:06.108Z,10.70
2022-11-09T00:45:34.195Z,10.70
2022-11-09T00:48:02.327Z,10.70
2022-11-09T00:50:30.663Z,10.70
2022-11-09T00:52:58.636Z,10.70
2022-11-09T00:55:26.593Z,10.70
2022-11-09T00:57:54.918Z,10.70
2022-11-09T01:00:25.568Z,10.70
2022-11-09T01:02:53.965Z,10.70
2022-11-09T01:05:21.954Z,10.60
2022-11-09T01:07:49.996Z,10.60
2022-11-09T01:10:18.116Z,10.60
2022-11-09T01:12:46.095Z,10.60
2022-11-09T01:15:14.046Z,10.60
2022-11-09T01:17:43.424Z,10.60
2022-11-09T01:20:12.902Z,10.60
2022-11-09T01:22:40.881Z,10.60
2022-11-09T01:25:09.924Z,10.60
2022-11-09T01:27:37.914Z,10.60
2022-11-09T01:30:06.710Z,10.60
2022-11-09T01:32:34.665Z,10.60
2022-11-09T01:35:03.974Z,10.60
2022-11-09T01:37:31.932Z,10.60
2022-11-09T01:40:00.056Z,10.60
2022-11-09T01:42:28.013Z,10.60
2022-11-09T01:45:25.615Z,10.50
2022-11-09T01:47:58.599Z,10.60
2022-11-09T01:50:34.611Z,10.60
2022-11-09T01:53:05.462Z,10.60
2022-11-09T01:55:33.458Z,10.50
2022-11-09T01:58:06.383Z,10.50
2022-11-09T02:00:37.442Z,10.50
2022-11-09T02:03:08.853Z,10.50
2022-11-09T02:05:40.645Z,10.50
2022-11-09T02:08:10.026Z,10.40
2022-11-09T02:10:44.596Z,10.40
2022-11-09T02:13:16.709Z,10.40
2022-11-09T02:15:46.003Z,10.40
2022-11-09T02:18:14.827Z,10.40
2022-11-09T02:20:48.292Z,10.40
2022-11-09T02:23:17.057Z,10.40
2022-11-09T02:25:49.491Z,10.30
2022-11-09T02:28:18.472Z,10.30
2022-11-09T02:30:54.054Z,10.30
2022-11-09T02:33:22.636Z,10.30
2022-11-09T02:35:52.118Z,10.30
2022-11-09T02:38:20.265Z,10.30
2022-11-09T02:40:51.064Z,10.30
2022-11-09T02:43:20.680Z,10.20
2022-11-09T02:45:48.822Z,10.20
2022-11-09T02:48:16.783Z,10.20
2022-11-09T02:50:44.802Z,10.20
2022-11-09T02:53:14.135Z,10.20
2022-11-09T02:55:42.084Z,10.20
2022-11-09T02:58:10.064Z,10.20
2022-11-09T03:00:38.022Z,10.30
2022-11-09T03:03:06.295Z,10.30
2022-11-09T03:05:34.261Z,10.30
2022-11-09T03:08:02.623Z,10.30
2022-11-09T03:10:32.116Z,10.30
2022-11-09T03:13:00.164Z,10.30
2022-11-09T03:15:28.121Z,10.30
2022-11-09T03:17:57.136Z,10.30
2022-11-09T03:20:25.113Z,10.30
2022-11-09T03:22:53.124Z,10.30
2022-11-09T03:25:21.106Z,10.40
2022-11-09T03:27:50.418Z,10.40
2022-11-09T03:30:18.993Z,10.40
2022-11-09T03:32:50.572Z,10.40
2022-11-09T03:35:18.862Z,10.40
2022-11-09T03:37:46.868Z,10.40
2022-11-09T03:40:14.850Z,10.40
2022-11-09T03:42:45.815Z,10.40
2022-11-09T03:45:16.465Z,10.40
2022-11-09T03:47:45.180Z,10.50
2022-11-09T03:50:14.254Z,10.50
2022-11-09T03:52:45.161Z,10.50
2022-11-09T03:55:13.579Z,10.50
2022-11-09T03:57:42.167Z,10.60
2022-11-09T04:00:11.144Z,10.50
2022-11-09T04:02:40.622Z,10.50
2022-11-09T04:05:10.165Z,10.50
2022-11-09T04:07:38.158Z,10.50
2022-11-09T04:10:07.213Z,10.50
2022-11-09T04:12:35.246Z,10.50
2022-11-09T04:15:03.219Z,10.50
2022-11-09T04:17:31.190Z,10.40
2022-11-09T04:20:00.612Z,10.40
2022-11-09T04:22:28.567Z,10.40
2022-11-09T04:24:56.530Z,10.40
2022-11-09T04:27:24.479Z,10.40
2022-11-09T04:29:52.426Z,10.40
2022-11-09T04:32:20.356Z,10.50
2022-11-09T04:34:48.344Z,10.40
2022-11-09T04:37:17.694Z,10.50
2022-11-09T04:39:45.720Z,10.50
2022-11-09T04:42:13.666Z,10.50
2022-11-09T04:44:41.611Z,10.50
2022-11-09T04:47:09.619Z,10.50
2022-11-09T04:49:37.574Z,10.60
2022-11-09T04:52:05.861Z,10.60
2022-11-09T04:54:35.205Z,10.60
2022-11-09T04:57:03.180Z,10.70
2022-11-09T04:59:31.167Z,10.70
2022-11-09T05:01:59.143Z,10.70
2022-11-09T05:04:27.139Z,10.70
2022-11-09T05:06:55.136Z,10.70
2022-11-09T05:09:23.177Z,10.70
2022-11-09T05:11:53.042Z,10.70
2022-11-09T05:14:20.986Z,10.70
2022-11-09T05:16:48.962Z,10.70
2022-11-09T05:19:17.002Z,10.70
2022-11-09T05:21:44.991Z,10.70
2022-11-09T05:24:12.139Z,10.70
2022-11-09T05:26:42.399Z,10.70
2022-11-09T05:29:13.056Z,10.70
2022-11-09T05:31:43.679Z,10.70
2022-11-09T05:34:14.646Z,10.70
2022-11-09T05:36:42.919Z,10.80
2022-11-09T05:39:10.925Z,10.80
2022-11-09T05:41:38.904Z,10.80
2022-11-09T05:44:06.893Z,10.80
2022-11-09T05:46:36.254Z,10.80
2022-11-09T05:49:04.391Z,10.80
2022-11-09T05:51:32.436Z,10.80
2022-11-09T05:54:00.417Z,10.80
2022-11-09T05:56:28.586Z,10.80
2022-11-09T05:58:57.218Z,10.80
2022-11-09T06:01:25.235Z,10.80
2022-11-09T06:03:56.206Z,10.80
2022-11-09T06:06:24.269Z,10.80
2022-11-09T06:08:52.288Z,10.90
2022-11-09T06:11:24.145Z,10.90
2022-11-09T06:13:52.776Z,11.00
2022-11-09T06:16:20.830Z,10.90
2022-11-09T06:18:48.831Z,10.90
2022-11-09T06:21:18.250Z,11.00
2022-11-09T06:23:46.446Z,11.00
2022-11-09T06:26:14.776Z,11.00
2022-11-09T06:28:43.605Z,11.00
2022-11-09T06:31:14.001Z,11.00
2022-11-09T06:33:42.161Z,11.10
2022-11-09T06:36:11.438Z,11.10
2022-11-09T06:38:40.830Z,11.20
2022-11-09T06:41:09.836Z,11.20
2022-11-09T06:43:37.856Z,11.20
2022-11-09T06:46:06.748Z,11.30
2022-11-09T06:48:34.838Z,11.30
2022-11-09T06:51:03.216Z,11.30
2022-11-09T06:53:32.427Z,11.30
2022-11-09T06:56:03.046Z,11.30
2022-11-09T06:58:31.431Z,11.30
2022-11-09T07:00:59.919Z,11.30
2022-11-09T07:03:27.934Z,11.30
2022-11-09T07:05:55.993Z,11.30
2022-11-09T07:08:24.139Z,11.40
2022-11-09T07:10:52.837Z,11.40
2022-11-09T07:13:22.609Z,11.40
2022-11-09T07:15:54.523Z,11.40
2022-11-09T07:18:22.484Z,11.50
2022-11-09T07:20:50.831Z,11.50
2022-11-09T07:23:19.136Z,11.50
2022-11-09T07:25:47.557Z,11.50
2022-11-09T07:28:15.666Z,11.50
2022-11-09T07:30:45.131Z,11.50
2022-11-09T07:33:19.128Z,11.60
2022-11-09T07:35:47.897Z,11.60
2022-11-09T07:38:16.936Z,11.70
2022-11-09T07:40:45.103Z,11.70
2022-11-09T07:43:13.845Z,11.70
2022-11-09T07:45:42.035Z,11.70
2022-11-09T07:48:12.492Z,11.70
2022-11-09T07:50:41.291Z,11.70
2022-11-09T07:53:11.286Z,11.70
2022-11-09T07:55:39.366Z,11.70
2022-11-09T07:58:09.257Z,11.70
2022-11-09T08:00:39.109Z,11.70
2022-11-09T08:03:07.192Z,11.70
2022-11-09T08:05:37.328Z,11.70
2022-11-09T08:08:07.842Z,11.70
2022-11-09T08:10:36.803Z,11.80
2022-11-09T08:13:06.622Z,11.70
2022-11-09T08:15:36.335Z,11.70
2022-11-09T08:18:06.787Z,11.70
2022-11-09T08:20:36.888Z,11.70
2022-11-09T08:23:05.343Z,11.70
2022-11-09T08:25:34.165Z,11.70
2022-11-09T08:28:03.363Z,11.80
2022-11-09T08:30:31.975Z,11.80
2022-11-09T08:33:00.991Z,11.80
2022-11-09T08:35:29.610Z,11.80
2022-11-09T08:38:02.574Z,11.80
2022-11-09T08:40:31.756Z,11.80
2022-11-09T08:43:03.849Z,11.80
2022-11-09T08:45:33.886Z,11.90
2022-11-09T08:48:02.541Z,11.80
2022-11-09T08:50:32.250Z,11.80
2022-11-09T08:53:02.162Z,11.90
2022-11-09T08:55:31.292Z,11.90
2022-11-09T08:58:01.386Z,11.90
2022-11-09T09:00:30.402Z,11.90
2022-11-09T09:02:58.424Z,12.00
2022-11-09T09:05:26.577Z,12.00
2022-11-09T09:07:54.642Z,12.00
2022-11-09T09:10:23.985Z,12.00
2022-11-09T09:12:51.986Z,12.10
2022-11-09T09:15:20.248Z,12.10
2022-11-09T09:17:48.343Z,12.10
2022-11-09T09:20:17.441Z,12.10
2022-11-09T09:22:45.526Z,12.10
2022-11-09T09:25:13.842Z,12.10
2022-11-09T09:27:45.209Z,12.00
2022-11-09T09:30:14.329Z,12.00
2022-11-09T09:32:42.923Z,12.00
2022-11-09T09:35:11.602Z,12.00
2022-11-09T09:37:39.654Z,12.00
2022-11-09T09:40:08.942Z,12.00
2022-11-09T09:42:38.691Z,12.00
2022-11-09T09:45:15.675Z,11.90
2022-11-09T09:47:51.284Z,11.90
2022-11-09T09:50:24.077Z,11.90
2022-11-09T09:53:23.138Z,11.90
2022-11-09T09:55:51.573Z,11.90
2022-11-09T09:58:24.742Z,11.80
2022-11-09T10:00:59.601Z,11.80
2022-11-09T10:03:27.668Z,11.80
2022-11-09T10:06:02.391Z,11.80
2022-11-09T10:08:42.903Z,11.80
2022-11-09T10:11:24.733Z,11.80
2022-11-09T10:14:22.157Z,11.80
2022-11-09T10:16:59.243Z,11.80
2022-11-09T10:19:39.988Z,11.90
2022-11-09T10:22:16.788Z,11.90
2022-11-09T10:25:18.404Z,12.00
2022-11-09T10:27:47.206Z,12.00
2022-11-09T10:30:18.345Z,12.00
2022-11-09T10:32:51.429Z,12.00
2022-11-09T10:35:22.493Z,12.10
2022-11-09T10:37:52.349Z,12.10
2022-11-09T10:40:25.256Z,12.10
2022-11-09T10:42:56.514Z,12.10
2022-11-09T10:45:31.693Z,12.20
2022-11-09T10:48:01.942Z,12.20
2022-11-09T10:50:34.308Z,12.20
2022-11-09T10:53:16.739Z,12.20
2022-11-09T10:55:56.047Z,12.30
2022-11-09T10:58:33.979Z,12.30
2022-11-09T11:01:05.407Z,12.30
2022-11-09T11:03:38.250Z,12.30
2022-11-09T11:06:07.637Z,12.30
2022-11-09T11:08:38.852Z,12.30
2022-11-09T11:11:37.551Z,12.30
2022-11-09T11:14:15.861Z,12.40
2022-11-09T11:16:47.294Z,12.40
2022-11-09T11:19:33.884Z,12.40
2022-11-09T11:22:19.120Z,12.30
2022-11-09T11:24:56.349Z,12.30
2022-11-09T11:27:29.632Z,12.40
2022-11-09T11:30:05.276Z,12.30
2022-11-09T11:32:33.609Z,12.40
2022-11-09T11:35:05.288Z,12.40
2022-11-09T11:37:47.082Z,12.40
2022-11-09T11:40:21.270Z,12.50
2022-11-09T11:43:04.206Z,12.50
2022-11-09T11:45:41.026Z,12.60
2022-11-09T11:48:27.201Z,12.70
2022-11-09T11:51:04.477Z,12.70
2022-11-09T11:53:47.113Z,12.80
2022-11-09T11:56:35.716Z,12.90
2022-11-09T11:59:25.543Z,13.00
2022-11-09T12:02:22.233Z,13.00
2022-11-09T12:05:26.055Z,13.00
2022-11-09T12:08:03.795Z,13.00
2022-11-09T12:10:45.573Z,13.00
2022-11-09T12:13:25.610Z,13.00
2022-11-09T12:16:00.746Z,13.00
2022-11-09T12:18:50.611Z,13.00
2022-11-09T12:21:20.400Z,13.10
2022-11-09T12:24:07.595Z,13.10
2022-11-09T12:27:04.655Z,13.10
2022-11-09T12:29:45.487Z,13.20
2022-11-09T12:32:22.894Z,13.20
2022-11-09T12:34:57.734Z,13.30
2022-11-09T12:37:30.373Z,13.30
2022-11-09T12:40:13.187Z,13.30
2022-11-09T12:42:47.219Z,13.40
2022-11-09T12:45:23.993Z,13.30
2022-11-09T12:47:54.736Z,13.30
2022-11-09T12:50:25.519Z,13.30
2022-11-09T12:52:54.539Z,13.30
2022-11-09T12:55:30.085Z,13.30
2022-11-09T12:58:00.899Z,13.30
2022-11-09T13:00:48.409Z,13.30
2022-11-09T13:03:28.585Z,13.30
2022-11-09T13:06:15.020Z,13.40
2022-11-09T13:08:47.203Z,13.40
2022-11-09T13:11:26.793Z,13.50
2022-11-09T13:14:33.803Z,13.50
2022-11-09T13:17:03.947Z,13.50
2022-11-09T13:19:52.384Z,13.50
2022-11-09T13:22:53.756Z,13.50
2022-11-09T13:25:50.924Z,13.50
2022-11-09T13:28:45.197Z,13.50
2022-11-09T13:31:13.275Z,13.50
2022-11-09T13:33:42.277Z,13.50
2022-11-09T13:36:21.785Z,13.50
2022-11-09T13:39:34.939Z,13.50
2022-11-09T13:42:05.803Z,13.50
2022-11-09T13:44:37.759Z,13.50
2022-11-09T13:47:21.537Z,13.50
2022-11-09T13:49:51.358Z,13.50
2022-11-09T13:52:50.161Z,13.60
2022-11-09T13:55:34.335Z,13.60
2022-11-09T13:58:07.640Z,13.60
2022-11-09T14:00:37.056Z,13.60
2022-11-09T14:03:22.058Z,13.60
2022-11-09T14:05:53.492Z,13.60
2022-11-09T14:08:24.426Z,13.60
2022-11-09T14:11:39.427Z,13.50
2022-11-09T14:14:22.717Z,13.50
2022-11-09T14:16:59.146Z,13.50
2022-11-09T14:19:37.042Z,13.50
2022-11-09T14:22:16.173Z,13.40
2022-11-09T14:24:44.942Z,13.40
2022-11-09T14:27:19.489Z,13.40
2022-11-09T14:29:53.764Z,13.40
2022-11-09T14:32:29.039Z,13.30
2022-11-09T14:35:12.737Z,13.30
2022-11-09T14:37:45.394Z,13.30
2022-11-09T14:40:19.467Z,13.20
2022-11-09T14:42:50.616Z,13.20
2022-11-09T14:45:19.416Z,13.20
2022-11-09T14:47:50.600Z,13.20
2022-11-09T14:50:22.103Z,13.10
2022-11-09T14:52:51.613Z,13.10
2022-11-09T14:55:21.409Z,13.10
2022-11-09T14:57:51.171Z,13.00
2022-11-09T15:00:31.734Z,13.00
2022-11-09T15:03:01.809Z,13.00
2022-11-09T15:05:38.982Z,12.90
2022-11-09T15:08:14.895Z,12.90
2022-11-09T15:10:49.254Z,12.80
2022-11-09T15:13:17.374Z,12.70
2022-11-09T15:15:52.592Z,12.70
2022-11-09T15:18:31.864Z,12.70
2022-11-09T15:21:19.641Z,12.60
2022-11-09T15:23:49.841Z,12.50
2022-11-09T15:26:34.186Z,12.50
2022-11-09T15:29:02.520Z,12.50
2022-11-09T15:31:30.571Z,12.50
2022-11-09T15:33:59.955Z,12.40
2022-11-09T15:36:31.360Z,12.40
2022-11-09T15:39:09.041Z,12.40
2022-11-09T15:41:38.331Z,12.30
2022-11-09T15:44:07.127Z,12.30
2022-11-09T15:46:38.653Z,12.30
2022-11-09T15:49:18.130Z,12.30
2022-11-09T15:51:46.674Z,12.20
2022-11-09T15:54:15.452Z,12.20
2022-11-09T15:56:43.772Z,12.20
2022-11-09T15:59:19.872Z,12.10
2022-11-09T16:01:47.879Z,12.00
2022-11-09T16:04:17.336Z,12.00
2022-11-09T16:06:46.812Z,12.00
2022-11-09T16:09:15.811Z,11.90
2022-11-09T16:11:43.752Z,11.90
2022-11-09T16:14:11.707Z,11.90
2022-11-09T16:16:39.788Z,11.90
2022-11-09T16:19:07.793Z,11.90
2022-11-09T16:21:37.188Z,11.80
2022-11-09T16:24:05.591Z,11.70
2022-11-09T16:26:33.685Z,11.80
2022-11-09T16:29:02.327Z,11.70
2022-11-09T16:31:50.187Z,11.70
2022-11-09T16:34:18.288Z,11.60
2022-11-09T16:36:53.787Z,11.60
2022-11-09T16:39:26.876Z,11.60
2022-11-09T16:41:55.200Z,11.60
2022-11-09T16:44:25.104Z,11.50
2022-11-09T16:46:53.209Z,11.50
2022-11-09T16:49:21.369Z,11.50
2022-11-09T16:51:50.816Z,11.50
2022-11-09T16:54:18.805Z,11.40
2022-11-09T16:56:48.032Z,11.40
2022-11-09T16:59:16.039Z,11.40
2022-11-09T17:01:44.089Z,11.40
2022-11-09T17:04:12.199Z,11.40
2022-11-09T17:06:40.297Z,11.30
2022-11-09T17:09:09.726Z,11.30
2022-11-09T17:11:37.840Z,11.30
2022-11-09T17:14:06.161Z,11.20
2022-11-09T17:16:34.260Z,11.20
2022-11-09T17:19:02.818Z,11.20
2022-11-09T17:21:31.161Z,11.20
2022-11-09T17:24:00.439Z,11.20
2022-11-09T17:26:32.602Z,11.20
2022-11-09T17:29:00.631Z,11.20
2022-11-09T17:31:28.650Z,11.20
2022-11-09T17:34:01.122Z,11.20
2022-11-09T17:36:49.191Z,11.10
2022-11-09T17:39:17.390Z,11.20
2022-11-09T17:41:46.748Z,11.20
2022-11-09T17:44:14.871Z,11.20
2022-11-09T17:46:43.030Z,11.20
2022-11-09T17:49:11.017Z,11.20
2022-11-09T17:51:39.341Z,11.10
2022-11-09T17:54:07.462Z,11.20
2022-11-09T17:56:35.937Z,11.10
2022-11-09T17:59:06.446Z,11.10
2022-11-09T18:01:40.820Z,11.10
2022-11-09T18:04:11.347Z,11.10
2022-11-09T18:06:40.142Z,11.20
2022-11-09T18:09:39.705Z,11.10
2022-11-09T18:11:56.247Z,11.20
2022-11-09T18:14:25.597Z,11.20
2022-11-09T18:16:53.569Z,11.20
2022-11-09T18:19:21.738Z,11.10
2022-11-09T18:21:49.739Z,11.20
2022-11-09T18:24:17.769Z,11.20
2022-11-09T18:26:45.779Z,11.20
2022-11-09T18:29:13.802Z,11.20
2022-11-09T18:31:43.168Z,11.20
2022-11-09T18:34:11.991Z,11.20
2022-11-09T18:36:39.995Z,11.20
2022-11-09T18:39:08.024Z,11.20
2022-11-09T18:41:36.014Z,11.20
2022-11-09T18:44:04.006Z,11.20
2022-11-09T18:46:33.194Z,11.20
2022-11-09T18:49:02.544Z,11.20
2022-11-09T18:51:30.561Z,11.20
2022-11-09T18:53:58.570Z,11.20
2022-11-09T18:56:26.973Z,11.20
2022-11-09T18:58:56.617Z,11.20
2022-11-09T19:01:27.080Z,11.20
2022-11-09T19:03:59.198Z,11.20
2022-11-09T19:06:29.515Z,11.20
2022-11-09T19:09:14.845Z,11.20
2022-11-09T19:11:43.056Z,11.10
2022-11-09T19:14:11.261Z,11.20
2022-11-09T19:16:39.477Z,11.20
2022-11-09T19:19:07.469Z,11.20
2022-11-09T19:21:42.496Z,11.10
2022-11-09T19:24:13.751Z,11.20
2022-11-09T19:26:41.912Z,11.20
2022-11-09T19:29:10.730Z,11.10
2022-11-09T19:31:42.958Z,11.20
2022-11-09T19:34:11.075Z,11.20
2022-11-09T19:36:42.013Z,11.10
2022-11-09T19:39:10.158Z,11.20
2022-11-09T19:41:38.166Z,11.20
2022-11-09T19:44:07.173Z,11.20
2022-11-09T19:46:36.853Z,11.20
2022-11-09T19:49:05.422Z,11.20
2022-11-09T19:51:34.717Z,11.20
2022-11-09T19:54:05.949Z,11.20
2022-11-09T19:56:34.488Z,11.10
2022-11-09T19:59:04.238Z,11.20
2022-11-09T20:01:32.348Z,11.20
2022-11-09T20:04:06.356Z,11.20
2022-11-09T20:06:38.011Z,11.20
2022-11-09T20:09:07.555Z,11.20
2022-11-09T20:11:52.958Z,11.20
2022-11-09T20:14:21.212Z,11.20
2022-11-09T20:16:49.351Z,11.20
2022-11-09T20:19:17.709Z,11.30
2022-11-09T20:21:45.815Z,11.20
2022-11-09T20:24:15.319Z,11.30
2022-11-09T20:26:44.072Z,11.30
2022-11-09T20:29:12.470Z,11.30
2022-11-09T20:31:40.920Z,11.30
2022-11-09T20:34:09.038Z,11.30
2022-11-09T20:36:37.079Z,11.30
2022-11-09T20:39:05.389Z,11.30
2022-11-09T20:41:36.410Z,11.30
2022-11-09T20:44:04.432Z,11.30
2022-11-09T20:46:36.278Z,11.30
2022-11-09T20:49:05.251Z,11.30
2022-11-09T20:51:33.231Z,11.30
2022-11-09T20:54:06.830Z,11.30
2022-11-09T20:56:37.592Z,11.30
2022-11-09T20:59:05.813Z,11.30
2022-11-09T21:01:34.171Z,11.30
2022-11-09T21:04:02.317Z,11.30
2022-11-09T21:06:31.179Z,11.40
2022-11-09T21:09:00.948Z,11.50
2022-11-09T21:11:35.579Z,11.50
2022-11-09T21:14:05.092Z,11.60
2022-11-09T21:16:33.088Z,11.60
2022-11-09T21:19:01.088Z,11.80
2022-11-09T21:21:35.005Z,11.80
2022-11-09T21:24:22.270Z,11.90
2022-11-09T21:27:07.872Z,11.90
2022-11-09T21:29:52.178Z,11.90
2022-11-09T21:32:20.874Z,11.90
2022-11-09T21:34:49.101Z,11.90
2022-11-09T21:37:18.788Z,11.90
2022-11-09T21:39:46.762Z,11.90
2022-11-09T21:42:14.830Z,11.90
2022-11-09T21:44:44.325Z,11.90
2022-11-09T21:47:12.262Z,12.00
2022-11-09T21:49:40.286Z,11.90
2022-11-09T21:52:08.303Z,12.00
2022-11-09T21:54:36.276Z,12.00
2022-11-09T21:57:04.522Z,12.00
2022-11-09T21:59:32.506Z,12.00
2022-11-09T22:02:01.857Z,12.00
2022-11-09T22:04:29.832Z,12.00
2022-11-09T22:06:57.892Z,12.00
2022-11-09T22:09:25.906Z,12.00
2022-11-09T22:12:11.585Z,12.10
2022-11-09T22:14:57.109Z,12.10
2022-11-09T22:17:26.509Z,12.10
2022-11-09T22:20:11.876Z,12.20
2022-11-09T22:22:39.882Z,12.20
2022-11-09T22:25:09.086Z,12.10
2022-11-09T22:27:37.007Z,12.10
2022-11-09T22:30:05.905Z,12.10
2022-11-09T22:32:35.260Z,12.10
2022-11-09T22:35:03.297Z,12.00
2022-11-09T22:37:31.284Z,12.10
2022-11-09T22:39:59.280Z,12.00
2022-11-09T22:42:27.281Z,12.10
2022-11-09T22:44:55.299Z,12.10
2022-11-09T22:47:23.744Z,12.10
2022-11-09T22:49:53.107Z,12.10
2022-11-09T22:52:21.102Z,12.10
2022-11-09T22:54:49.078Z,12.10
2022-11-09T22:57:17.042Z,12.10
2022-11-09T22:59:45.015Z,12.20
2022-11-09T23:02:13.001Z,12.10
2022-11-09T23:04:41.011Z,12.10
2022-11-09T23:07:10.460Z,12.00
2022-11-09T23:09:38.537Z,12.00
2022-11-09T23:12:06.969Z,12.00
2022-11-09T23:14:52.358Z,12.00
2022-11-09T23:17:37.753Z,12.00
2022-11-09T23:20:06.656Z,12.00
2022-11-09T23:22:35.985Z,12.00
2022-11-09T23:25:21.211Z,12.00
2022-11-09T23:27:51.862Z,12.00
2022-11-09T23:30:20.177Z,12.00
2022-11-09T23:32:48.140Z,12.00
2022-11-09T23:35:16.335Z,11.90
2022-11-09T23:37:45.757Z,11.90
2022-11-09T23:40:14.141Z,11.90
2022-11-09T23:42:42.197Z,11.90
2022-11-09T23:45:11.074Z,11.90
2022-11-09T23:47:39.032Z,11.90
2022-11-09T23:50:07.886Z,11.90
2022-11-09T23:52:36.159Z,11.90
2022-11-09T23:55:06.143Z,11.80
2022-11-09T23:57:34.103Z,11.80
